sensor_id;sensor_type;location;lat;lon;timestamp;P1;durP1;ratioP1;P2;durP2;ratioP2
13693;SDS011;6919;52.344;14.518;2022-08-21T00:02:03;9.87;;;7.70;;
13693;SDS011;6919;52.344;14.518;2022-08-21T00:04:40;11.63;;;8.37;;
13693;SDS011;6919;52.344;14.518;2022-08-21T00:07:23;8.90;;;8.10;;
13693;SDS011;6919;52.344;14.518;2022-08-21T00:09:52;15.77;;;9.20;;
13693;SDS011;6919;52.344;14.518;2022-08-21T00:12:20;11.00;;;9.10;;
13693;SDS011;6919;52.344;14.518;2022-08-21T00:14:50;10.03;;;8.30;;
13693;SDS011;6919;52.344;14.518;2022-08-21T00:17:23;14.67;;;9.43;;
13693;SDS011;6919;52.344;14.518;2022-08-21T00:19:51;10.23;;;9.00;;
13693;SDS011;6919;52.344;14.518;2022-08-21T00:22:19;10.07;;;8.77;;
13693;SDS011;6919;52.344;14.518;2022-08-21T00:24:48;12.37;;;9.43;;
13693;SDS011;6919;52.344;14.518;2022-08-21T00:27:16;11.87;;;9.23;;
13693;SDS011;6919;52.344;14.518;2022-08-21T00:29:44;11.00;;;8.80;;
13693;SDS011;6919;52.344;14.518;2022-08-21T00:32:14;10.70;;;9.60;;
13693;SDS011;6919;52.344;14.518;2022-08-21T00:34:48;11.20;;;8.43;;
13693;SDS011;6919;52.344;14.518;2022-08-21T00:37:16;12.60;;;9.30;;
13693;SDS011;6919;52.344;14.518;2022-08-21T00:39:45;11.30;;;9.27;;
13693;SDS011;6919;52.344;14.518;2022-08-21T00:42:15;11.63;;;9.10;;
13693;SDS011;6919;52.344;14.518;2022-08-21T00:44:46;10.63;;;9.60;;
13693;SDS011;6919;52.344;14.518;2022-08-21T00:47:22;10.90;;;9.80;;
13693;SDS011;6919;52.344;14.518;2022-08-21T00:49:50;11.67;;;10.43;;
13693;SDS011;6919;52.344;14.518;2022-08-21T00:52:19;12.33;;;10.60;;
13693;SDS011;6919;52.344;14.518;2022-08-21T00:54:52;13.10;;;10.27;;
13693;SDS011;6919;52.344;14.518;2022-08-21T00:57:26;11.57;;;10.47;;
13693;SDS011;6919;52.344;14.518;2022-08-21T01:00:00;11.27;;;10.17;;
13693;SDS011;6919;52.344;14.518;2022-08-21T01:02:34;15.93;;;11.87;;
13693;SDS011;6919;52.344;14.518;2022-08-21T01:05:03;13.27;;;11.97;;
13693;SDS011;6919;52.344;14.518;2022-08-21T01:07:32;13.37;;;11.30;;
13693;SDS011;6919;52.344;14.518;2022-08-21T01:10:00;13.63;;;10.73;;
13693;SDS011;6919;52.344;14.518;2022-08-21T01:12:30;12.60;;;11.23;;
13693;SDS011;6919;52.344;14.518;2022-08-21T01:14:58;13.63;;;11.13;;
13693;SDS011;6919;52.344;14.518;2022-08-21T01:17:30;18.47;;;11.03;;
13693;SDS011;6919;52.344;14.518;2022-08-21T01:20:01;14.30;;;10.27;;
13693;SDS011;6919;52.344;14.518;2022-08-21T01:22:35;11.73;;;9.30;;
13693;SDS011;6919;52.344;14.518;2022-08-21T01:25:05;9.83;;;8.83;;
13693;SDS011;6919;52.344;14.518;2022-08-21T01:27:38;13.47;;;9.47;;
13693;SDS011;6919;52.344;14.518;2022-08-21T01:30:08;10.73;;;8.93;;
13693;SDS011;6919;52.344;14.518;2022-08-21T01:32:43;16.57;;;8.30;;
13693;SDS011;6919;52.344;14.518;2022-08-21T01:35:13;10.77;;;7.97;;
13693;SDS011;6919;52.344;14.518;2022-08-21T01:37:45;13.77;;;7.60;;
13693;SDS011;6919;52.344;14.518;2022-08-21T01:40:15;7.80;;;7.07;;
13693;SDS011;6919;52.344;14.518;2022-08-21T01:42:45;10.43;;;7.07;;
13693;SDS011;6919;52.344;14.518;2022-08-21T01:45:15;11.47;;;7.00;;
13693;SDS011;6919;52.344;14.518;2022-08-21T01:47:43;7.93;;;7.10;;
13693;SDS011;6919;52.344;14.518;2022-08-21T01:50:13;10.13;;;7.00;;
13693;SDS011;6919;52.344;14.518;2022-08-21T01:52:47;9.47;;;6.37;;
13693;SDS011;6919;52.344;14.518;2022-08-21T01:55:16;9.83;;;6.07;;
13693;SDS011;6919;52.344;14.518;2022-08-21T01:57:46;6.93;;;4.97;;
13693;SDS011;6919;52.344;14.518;2022-08-21T02:00:16;7.97;;;4.37;;
13693;SDS011;6919;52.344;14.518;2022-08-21T02:02:50;8.90;;;5.23;;
13693;SDS011;6919;52.344;14.518;2022-08-21T02:05:19;6.77;;;3.70;;
13693;SDS011;6919;52.344;14.518;2022-08-21T02:07:52;7.23;;;4.80;;
13693;SDS011;6919;52.344;14.518;2022-08-21T02:10:23;7.20;;;4.57;;
13693;SDS011;6919;52.344;14.518;2022-08-21T02:12:55;5.63;;;4.03;;
13693;SDS011;6919;52.344;14.518;2022-08-21T02:15:25;9.70;;;4.83;;
13693;SDS011;6919;52.344;14.518;2022-08-21T02:17:55;6.47;;;4.83;;
13693;SDS011;6919;52.344;14.518;2022-08-21T02:20:29;8.47;;;4.37;;
13693;SDS011;6919;52.344;14.518;2022-08-21T02:23:03;4.70;;;4.20;;
13693;SDS011;6919;52.344;14.518;2022-08-21T02:25:33;6.50;;;4.33;;
13693;SDS011;6919;52.344;14.518;2022-08-21T02:28:04;9.23;;;4.10;;
13693;SDS011;6919;52.344;14.518;2022-08-21T02:30:40;6.07;;;3.80;;
13693;SDS011;6919;52.344;14.518;2022-08-21T02:33:12;8.57;;;4.07;;
13693;SDS011;6919;52.344;14.518;2022-08-21T02:35:42;7.30;;;4.10;;
13693;SDS011;6919;52.344;14.518;2022-08-21T02:38:16;8.23;;;4.53;;
13693;SDS011;6919;52.344;14.518;2022-08-21T02:40:47;8.37;;;4.30;;
13693;SDS011;6919;52.344;14.518;2022-08-21T02:43:18;11.90;;;4.60;;
13693;SDS011;6919;52.344;14.518;2022-08-21T02:45:48;8.07;;;4.20;;
13693;SDS011;6919;52.344;14.518;2022-08-21T02:48:19;6.17;;;4.30;;
13693;SDS011;6919;52.344;14.518;2022-08-21T02:50:51;9.87;;;3.67;;
13693;SDS011;6919;52.344;14.518;2022-08-21T02:53:25;7.00;;;3.80;;
13693;SDS011;6919;52.344;14.518;2022-08-21T02:55:56;7.90;;;3.70;;
13693;SDS011;6919;52.344;14.518;2022-08-21T02:58:29;5.50;;;4.07;;
13693;SDS011;6919;52.344;14.518;2022-08-21T03:01:04;9.00;;;4.00;;
13693;SDS011;6919;52.344;14.518;2022-08-21T03:03:35;9.47;;;4.10;;
13693;SDS011;6919;52.344;14.518;2022-08-21T03:06:05;7.97;;;4.20;;
13693;SDS011;6919;52.344;14.518;2022-08-21T03:08:38;6.70;;;4.13;;
13693;SDS011;6919;52.344;14.518;2022-08-21T03:11:06;9.40;;;4.27;;
13693;SDS011;6919;52.344;14.518;2022-08-21T03:13:35;7.90;;;4.27;;
13693;SDS011;6919;52.344;14.518;2022-08-21T03:16:06;8.00;;;4.00;;
13693;SDS011;6919;52.344;14.518;2022-08-21T03:18:36;5.17;;;3.70;;
13693;SDS011;6919;52.344;14.518;2022-08-21T03:21:05;7.10;;;3.63;;
13693;SDS011;6919;52.344;14.518;2022-08-21T03:23:34;8.23;;;4.20;;
13693;SDS011;6919;52.344;14.518;2022-08-21T03:26:03;5.50;;;3.97;;
13693;SDS011;6919;52.344;14.518;2022-08-21T03:28:33;9.33;;;3.90;;
13693;SDS011;6919;52.344;14.518;2022-08-21T03:31:01;7.93;;;3.50;;
13693;SDS011;6919;52.344;14.518;2022-08-21T03:33:29;5.57;;;3.60;;
13693;SDS011;6919;52.344;14.518;2022-08-21T03:35:59;6.37;;;3.73;;
13693;SDS011;6919;52.344;14.518;2022-08-21T03:38:32;5.40;;;3.37;;
13693;SDS011;6919;52.344;14.518;2022-08-21T03:41:02;5.33;;;3.33;;
13693;SDS011;6919;52.344;14.518;2022-08-21T03:43:33;5.03;;;3.37;;
13693;SDS011;6919;52.344;14.518;2022-08-21T03:46:03;11.43;;;3.70;;
13693;SDS011;6919;52.344;14.518;2022-08-21T03:48:33;6.50;;;3.33;;
13693;SDS011;6919;52.344;14.518;2022-08-21T03:51:04;7.43;;;3.13;;
13693;SDS011;6919;52.344;14.518;2022-08-21T03:53:33;5.57;;;3.03;;
13693;SDS011;6919;52.344;14.518;2022-08-21T03:56:04;5.40;;;3.30;;
13693;SDS011;6919;52.344;14.518;2022-08-21T03:58:33;6.87;;;3.70;;
13693;SDS011;6919;52.344;14.518;2022-08-21T04:01:02;6.53;;;3.63;;
13693;SDS011;6919;52.344;14.518;2022-08-21T04:03:33;9.90;;;3.40;;
13693;SDS011;6919;52.344;14.518;2022-08-21T04:06:04;5.73;;;3.10;;
13693;SDS011;6919;52.344;14.518;2022-08-21T04:08:33;7.33;;;3.77;;
13693;SDS011;6919;52.344;14.518;2022-08-21T04:11:04;5.93;;;3.13;;
13693;SDS011;6919;52.344;14.518;2022-08-21T04:13:33;6.67;;;3.30;;
13693;SDS011;6919;52.344;14.518;2022-08-21T04:16:10;5.50;;;3.17;;
13693;SDS011;6919;52.344;14.518;2022-08-21T04:18:38;6.07;;;3.40;;
13693;SDS011;6919;52.344;14.518;2022-08-21T04:21:07;12.20;;;3.57;;
13693;SDS011;6919;52.344;14.518;2022-08-21T04:23:39;6.07;;;2.70;;
13693;SDS011;6919;52.344;14.518;2022-08-21T04:26:09;7.83;;;3.63;;
13693;SDS011;6919;52.344;14.518;2022-08-21T04:28:37;9.77;;;3.30;;
13693;SDS011;6919;52.344;14.518;2022-08-21T04:31:06;7.07;;;3.77;;
13693;SDS011;6919;52.344;14.518;2022-08-21T04:33:36;4.57;;;3.27;;
13693;SDS011;6919;52.344;14.518;2022-08-21T04:36:05;12.03;;;3.70;;
13693;SDS011;6919;52.344;14.518;2022-08-21T04:38:34;7.60;;;3.37;;
13693;SDS011;6919;52.344;14.518;2022-08-21T04:41:09;6.77;;;3.37;;
13693;SDS011;6919;52.344;14.518;2022-08-21T04:43:38;7.00;;;3.50;;
13693;SDS011;6919;52.344;14.518;2022-08-21T04:46:07;6.63;;;3.17;;
13693;SDS011;6919;52.344;14.518;2022-08-21T04:48:38;7.37;;;3.17;;
13693;SDS011;6919;52.344;14.518;2022-08-21T04:51:07;7.03;;;3.17;;
13693;SDS011;6919;52.344;14.518;2022-08-21T04:53:44;5.60;;;3.00;;
13693;SDS011;6919;52.344;14.518;2022-08-21T04:56:25;4.70;;;3.17;;
13693;SDS011;6919;52.344;14.518;2022-08-21T04:58:59;11.07;;;3.37;;
13693;SDS011;6919;52.344;14.518;2022-08-21T05:01:34;10.13;;;3.80;;
13693;SDS011;6919;52.344;14.518;2022-08-21T05:04:07;10.67;;;3.77;;
13693;SDS011;6919;52.344;14.518;2022-08-21T05:06:40;6.13;;;2.80;;
13693;SDS011;6919;52.344;14.518;2022-08-21T05:09:13;11.60;;;3.33;;
13693;SDS011;6919;52.344;14.518;2022-08-21T05:11:47;6.97;;;3.50;;
13693;SDS011;6919;52.344;14.518;2022-08-21T05:14:16;6.77;;;3.10;;
13693;SDS011;6919;52.344;14.518;2022-08-21T05:16:45;5.70;;;2.67;;
13693;SDS011;6919;52.344;14.518;2022-08-21T05:19:13;5.87;;;2.70;;
13693;SDS011;6919;52.344;14.518;2022-08-21T05:21:42;7.23;;;2.60;;
13693;SDS011;6919;52.344;14.518;2022-08-21T05:24:14;8.13;;;2.63;;
13693;SDS011;6919;52.344;14.518;2022-08-21T05:26:44;8.63;;;3.30;;
13693;SDS011;6919;52.344;14.518;2022-08-21T05:29:15;6.00;;;2.93;;
13693;SDS011;6919;52.344;14.518;2022-08-21T05:31:44;6.20;;;2.90;;
13693;SDS011;6919;52.344;14.518;2022-08-21T05:34:14;6.00;;;2.83;;
13693;SDS011;6919;52.344;14.518;2022-08-21T05:36:47;7.20;;;3.30;;
13693;SDS011;6919;52.344;14.518;2022-08-21T05:39:15;7.13;;;2.60;;
13693;SDS011;6919;52.344;14.518;2022-08-21T05:41:43;6.17;;;2.47;;
13693;SDS011;6919;52.344;14.518;2022-08-21T05:44:12;5.53;;;2.30;;
13693;SDS011;6919;52.344;14.518;2022-08-21T05:46:41;4.13;;;2.47;;
13693;SDS011;6919;52.344;14.518;2022-08-21T05:49:10;6.70;;;2.63;;
13693;SDS011;6919;52.344;14.518;2022-08-21T05:51:39;5.03;;;2.40;;
13693;SDS011;6919;52.344;14.518;2022-08-21T05:54:07;8.40;;;2.70;;
13693;SDS011;6919;52.344;14.518;2022-08-21T05:56:37;6.43;;;2.57;;
13693;SDS011;6919;52.344;14.518;2022-08-21T05:59:05;3.23;;;2.30;;
13693;SDS011;6919;52.344;14.518;2022-08-21T06:01:34;5.73;;;2.30;;
13693;SDS011;6919;52.344;14.518;2022-08-21T06:04:04;8.40;;;2.50;;
13693;SDS011;6919;52.344;14.518;2022-08-21T06:06:33;6.17;;;2.57;;
13693;SDS011;6919;52.344;14.518;2022-08-21T06:09:02;6.30;;;2.90;;
13693;SDS011;6919;52.344;14.518;2022-08-21T06:11:31;5.73;;;2.50;;
13693;SDS011;6919;52.344;14.518;2022-08-21T06:14:00;6.27;;;2.90;;
13693;SDS011;6919;52.344;14.518;2022-08-21T06:16:29;8.20;;;2.80;;
13693;SDS011;6919;52.344;14.518;2022-08-21T06:18:57;7.10;;;2.70;;
13693;SDS011;6919;52.344;14.518;2022-08-21T06:21:29;5.10;;;3.43;;
13693;SDS011;6919;52.344;14.518;2022-08-21T06:23:58;6.47;;;3.07;;
13693;SDS011;6919;52.344;14.518;2022-08-21T06:26:26;5.33;;;2.73;;
13693;SDS011;6919;52.344;14.518;2022-08-21T06:28:55;7.60;;;2.83;;
13693;SDS011;6919;52.344;14.518;2022-08-21T06:31:24;5.00;;;2.67;;
13693;SDS011;6919;52.344;14.518;2022-08-21T06:33:55;3.90;;;2.70;;
13693;SDS011;6919;52.344;14.518;2022-08-21T06:36:23;5.90;;;2.50;;
13693;SDS011;6919;52.344;14.518;2022-08-21T06:38:53;3.73;;;2.83;;
13693;SDS011;6919;52.344;14.518;2022-08-21T06:41:23;6.17;;;2.90;;
13693;SDS011;6919;52.344;14.518;2022-08-21T06:43:52;9.40;;;3.10;;
13693;SDS011;6919;52.344;14.518;2022-08-21T06:46:22;4.67;;;2.97;;
13693;SDS011;6919;52.344;14.518;2022-08-21T06:48:53;6.87;;;2.70;;
13693;SDS011;6919;52.344;14.518;2022-08-21T06:51:22;6.67;;;2.83;;
13693;SDS011;6919;52.344;14.518;2022-08-21T06:53:51;5.73;;;2.40;;
13693;SDS011;6919;52.344;14.518;2022-08-21T06:56:24;6.10;;;2.80;;
13693;SDS011;6919;52.344;14.518;2022-08-21T06:58:53;5.10;;;2.77;;
13693;SDS011;6919;52.344;14.518;2022-08-21T07:01:23;5.70;;;2.43;;
13693;SDS011;6919;52.344;14.518;2022-08-21T07:03:53;7.37;;;2.40;;
13693;SDS011;6919;52.344;14.518;2022-08-21T07:06:22;5.97;;;2.47;;
13693;SDS011;6919;52.344;14.518;2022-08-21T07:08:51;5.23;;;2.33;;
13693;SDS011;6919;52.344;14.518;2022-08-21T07:11:24;7.67;;;2.60;;
13693;SDS011;6919;52.344;14.518;2022-08-21T07:13:53;6.57;;;2.77;;
13693;SDS011;6919;52.344;14.518;2022-08-21T07:16:22;7.50;;;3.17;;
13693;SDS011;6919;52.344;14.518;2022-08-21T07:18:51;8.23;;;2.93;;
13693;SDS011;6919;52.344;14.518;2022-08-21T07:21:19;6.20;;;2.73;;
13693;SDS011;6919;52.344;14.518;2022-08-21T07:23:51;6.77;;;2.27;;
13693;SDS011;6919;52.344;14.518;2022-08-21T07:26:22;6.77;;;2.27;;
13693;SDS011;6919;52.344;14.518;2022-08-21T07:28:52;6.13;;;2.47;;
13693;SDS011;6919;52.344;14.518;2022-08-21T07:31:23;9.60;;;2.87;;
13693;SDS011;6919;52.344;14.518;2022-08-21T07:33:53;6.67;;;2.50;;
13693;SDS011;6919;52.344;14.518;2022-08-21T07:36:21;5.57;;;2.17;;
13693;SDS011;6919;52.344;14.518;2022-08-21T07:38:50;7.13;;;2.47;;
13693;SDS011;6919;52.344;14.518;2022-08-21T07:41:21;8.63;;;2.60;;
13693;SDS011;6919;52.344;14.518;2022-08-21T07:43:52;9.20;;;2.43;;
13693;SDS011;6919;52.344;14.518;2022-08-21T07:46:20;6.77;;;2.43;;
13693;SDS011;6919;52.344;14.518;2022-08-21T07:48:48;7.50;;;2.30;;
13693;SDS011;6919;52.344;14.518;2022-08-21T07:51:19;4.97;;;2.33;;
13693;SDS011;6919;52.344;14.518;2022-08-21T07:53:54;6.53;;;2.40;;
13693;SDS011;6919;52.344;14.518;2022-08-21T07:56:26;9.03;;;2.57;;
13693;SDS011;6919;52.344;14.518;2022-08-21T07:58:57;8.93;;;2.37;;
13693;SDS011;6919;52.344;14.518;2022-08-21T08:01:26;3.50;;;1.97;;
13693;SDS011;6919;52.344;14.518;2022-08-21T08:03:54;7.33;;;2.60;;
13693;SDS011;6919;52.344;14.518;2022-08-21T08:06:24;6.20;;;2.27;;
13693;SDS011;6919;52.344;14.518;2022-08-21T08:08:52;6.13;;;2.23;;
13693;SDS011;6919;52.344;14.518;2022-08-21T08:11:20;3.67;;;2.10;;
13693;SDS011;6919;52.344;14.518;2022-08-21T08:13:50;6.27;;;2.10;;
13693;SDS011;6919;52.344;14.518;2022-08-21T08:16:22;7.07;;;2.73;;
13693;SDS011;6919;52.344;14.518;2022-08-21T08:18:51;7.93;;;2.33;;
13693;SDS011;6919;52.344;14.518;2022-08-21T08:21:20;6.10;;;2.20;;
13693;SDS011;6919;52.344;14.518;2022-08-21T08:23:49;4.40;;;2.20;;
13693;SDS011;6919;52.344;14.518;2022-08-21T08:26:18;4.80;;;2.20;;
13693;SDS011;6919;52.344;14.518;2022-08-21T08:28:46;6.17;;;2.20;;
13693;SDS011;6919;52.344;14.518;2022-08-21T08:31:16;3.77;;;1.97;;
13693;SDS011;6919;52.344;14.518;2022-08-21T08:33:44;4.87;;;1.90;;
13693;SDS011;6919;52.344;14.518;2022-08-21T08:36:13;5.30;;;2.00;;
13693;SDS011;6919;52.344;14.518;2022-08-21T08:38:45;5.63;;;2.10;;
13693;SDS011;6919;52.344;14.518;2022-08-21T08:41:16;6.47;;;2.37;;
13693;SDS011;6919;52.344;14.518;2022-08-21T08:43:49;6.97;;;2.20;;
13693;SDS011;6919;52.344;14.518;2022-08-21T08:46:25;6.17;;;2.20;;
13693;SDS011;6919;52.344;14.518;2022-08-21T08:49:06;9.83;;;2.10;;
13693;SDS011;6919;52.344;14.518;2022-08-21T08:51:45;5.87;;;2.00;;
13693;SDS011;6919;52.344;14.518;2022-08-21T08:54:24;6.80;;;2.30;;
13693;SDS011;6919;52.344;14.518;2022-08-21T08:56:59;3.50;;;1.77;;
13693;SDS011;6919;52.344;14.518;2022-08-21T08:59:32;4.80;;;2.23;;
13693;SDS011;6919;52.344;14.518;2022-08-21T09:02:11;5.33;;;2.07;;
13693;SDS011;6919;52.344;14.518;2022-08-21T09:04:42;5.97;;;1.80;;
13693;SDS011;6919;52.344;14.518;2022-08-21T09:07:16;5.93;;;2.10;;
13693;SDS011;6919;52.344;14.518;2022-08-21T09:09:59;5.33;;;1.90;;
13693;SDS011;6919;52.344;14.518;2022-08-21T09:12:42;3.33;;;1.53;;
13693;SDS011;6919;52.344;14.518;2022-08-21T09:15:25;4.40;;;1.80;;
13693;SDS011;6919;52.344;14.518;2022-08-21T09:18:11;5.53;;;1.93;;
13693;SDS011;6919;52.344;14.518;2022-08-21T09:21:01;11.77;;;1.97;;
13693;SDS011;6919;52.344;14.518;2022-08-21T09:23:45;5.03;;;1.90;;
13693;SDS011;6919;52.344;14.518;2022-08-21T09:26:27;4.57;;;1.70;;
13693;SDS011;6919;52.344;14.518;2022-08-21T09:29:01;5.90;;;2.10;;
13693;SDS011;6919;52.344;14.518;2022-08-21T09:31:33;6.90;;;2.47;;
13693;SDS011;6919;52.344;14.518;2022-08-21T09:34:06;4.67;;;2.00;;
13693;SDS011;6919;52.344;14.518;2022-08-21T09:36:40;4.70;;;2.13;;
13693;SDS011;6919;52.344;14.518;2022-08-21T09:39:13;6.47;;;2.47;;
13693;SDS011;6919;52.344;14.518;2022-08-21T09:41:55;7.00;;;2.20;;
13693;SDS011;6919;52.344;14.518;2022-08-21T09:44:27;5.40;;;2.20;;
13693;SDS011;6919;52.344;14.518;2022-08-21T09:46:59;8.03;;;2.13;;
13693;SDS011;6919;52.344;14.518;2022-08-21T09:49:29;5.90;;;2.57;;
13693;SDS011;6919;52.344;14.518;2022-08-21T09:52:00;6.83;;;2.90;;
13693;SDS011;6919;52.344;14.518;2022-08-21T09:54:35;6.77;;;3.00;;
13693;SDS011;6919;52.344;14.518;2022-08-21T09:57:12;7.57;;;2.30;;
13693;SDS011;6919;52.344;14.518;2022-08-21T10:00:16;9.50;;;2.50;;
13693;SDS011;6919;52.344;14.518;2022-08-21T10:02:51;7.63;;;3.20;;
13693;SDS011;6919;52.344;14.518;2022-08-21T10:05:22;6.70;;;2.40;;
13693;SDS011;6919;52.344;14.518;2022-08-21T10:07:54;4.77;;;2.30;;
13693;SDS011;6919;52.344;14.518;2022-08-21T10:10:23;9.63;;;5.93;;
13693;SDS011;6919;52.344;14.518;2022-08-21T10:12:59;6.80;;;3.80;;
13693;SDS011;6919;52.344;14.518;2022-08-21T10:15:40;5.37;;;2.23;;
13693;SDS011;6919;52.344;14.518;2022-08-21T10:18:20;3.93;;;2.00;;
13693;SDS011;6919;52.344;14.518;2022-08-21T10:20:58;4.57;;;1.87;;
13693;SDS011;6919;52.344;14.518;2022-08-21T10:23:40;9.63;;;2.60;;
13693;SDS011;6919;52.344;14.518;2022-08-21T10:26:26;9.00;;;2.63;;
13693;SDS011;6919;52.344;14.518;2022-08-21T10:29:14;3.70;;;1.73;;
13693;SDS011;6919;52.344;14.518;2022-08-21T10:32:00;3.80;;;1.90;;
13693;SDS011;6919;52.344;14.518;2022-08-21T10:34:53;5.37;;;2.40;;
13693;SDS011;6919;52.344;14.518;2022-08-21T10:37:39;4.57;;;2.47;;
13693;SDS011;6919;52.344;14.518;2022-08-21T10:40:24;4.10;;;2.03;;
13693;SDS011;6919;52.344;14.518;2022-08-21T10:43:02;5.23;;;2.20;;
13693;SDS011;6919;52.344;14.518;2022-08-21T10:45:48;5.10;;;1.90;;
13693;SDS011;6919;52.344;14.518;2022-08-21T10:48:31;6.17;;;2.50;;
13693;SDS011;6919;52.344;14.518;2022-08-21T10:51:06;6.60;;;2.30;;
13693;SDS011;6919;52.344;14.518;2022-08-21T10:53:57;6.20;;;2.10;;
13693;SDS011;6919;52.344;14.518;2022-08-21T10:56:33;3.30;;;1.67;;
13693;SDS011;6919;52.344;14.518;2022-08-21T10:59:15;3.40;;;1.80;;
13693;SDS011;6919;52.344;14.518;2022-08-21T11:01:56;7.23;;;2.00;;
13693;SDS011;6919;52.344;14.518;2022-08-21T11:04:38;5.33;;;2.27;;
13693;SDS011;6919;52.344;14.518;2022-08-21T11:07:19;6.57;;;1.97;;
13693;SDS011;6919;52.344;14.518;2022-08-21T11:10:03;5.27;;;2.03;;
13693;SDS011;6919;52.344;14.518;2022-08-21T11:12:41;5.27;;;1.77;;
13693;SDS011;6919;52.344;14.518;2022-08-21T11:15:23;4.63;;;1.70;;
13693;SDS011;6919;52.344;14.518;2022-08-21T11:18:02;6.37;;;2.37;;
13693;SDS011;6919;52.344;14.518;2022-08-21T11:20:49;6.80;;;1.87;;
13693;SDS011;6919;52.344;14.518;2022-08-21T11:23:31;5.30;;;1.90;;
13693;SDS011;6919;52.344;14.518;2022-08-21T11:26:10;5.03;;;2.13;;
13693;SDS011;6919;52.344;14.518;2022-08-21T11:28:47;4.70;;;1.97;;
13693;SDS011;6919;52.344;14.518;2022-08-21T11:31:28;7.87;;;1.87;;
13693;SDS011;6919;52.344;14.518;2022-08-21T11:34:17;7.57;;;2.17;;
13693;SDS011;6919;52.344;14.518;2022-08-21T11:37:15;6.07;;;1.93;;
13693;SDS011;6919;52.344;14.518;2022-08-21T11:39:59;3.93;;;1.80;;
13693;SDS011;6919;52.344;14.518;2022-08-21T11:42:36;6.47;;;2.57;;
13693;SDS011;6919;52.344;14.518;2022-08-21T11:45:19;4.60;;;2.03;;
13693;SDS011;6919;52.344;14.518;2022-08-21T11:47:59;4.50;;;2.17;;
13693;SDS011;6919;52.344;14.518;2022-08-21T11:50:38;7.70;;;2.30;;
13693;SDS011;6919;52.344;14.518;2022-08-21T11:53:12;4.90;;;1.93;;
13693;SDS011;6919;52.344;14.518;2022-08-21T11:55:48;4.70;;;1.80;;
13693;SDS011;6919;52.344;14.518;2022-08-21T11:58:22;4.30;;;1.60;;
13693;SDS011;6919;52.344;14.518;2022-08-21T12:00:58;6.87;;;2.40;;
13693;SDS011;6919;52.344;14.518;2022-08-21T12:03:33;7.50;;;1.93;;
13693;SDS011;6919;52.344;14.518;2022-08-21T12:06:09;5.00;;;1.70;;
13693;SDS011;6919;52.344;14.518;2022-08-21T12:08:56;4.13;;;1.60;;
13693;SDS011;6919;52.344;14.518;2022-08-21T12:11:27;5.30;;;1.70;;
13693;SDS011;6919;52.344;14.518;2022-08-21T12:13:58;3.97;;;1.87;;
13693;SDS011;6919;52.344;14.518;2022-08-21T12:16:40;5.10;;;1.93;;
13693;SDS011;6919;52.344;14.518;2022-08-21T12:19:13;4.43;;;1.77;;
13693;SDS011;6919;52.344;14.518;2022-08-21T12:21:58;5.90;;;1.90;;
13693;SDS011;6919;52.344;14.518;2022-08-21T12:24:37;3.13;;;1.33;;
13693;SDS011;6919;52.344;14.518;2022-08-21T12:27:13;3.73;;;1.40;;
13693;SDS011;6919;52.344;14.518;2022-08-21T12:29:58;4.47;;;1.50;;
13693;SDS011;6919;52.344;14.518;2022-08-21T12:32:31;3.73;;;1.97;;
13693;SDS011;6919;52.344;14.518;2022-08-21T12:35:16;7.70;;;1.73;;
13693;SDS011;6919;52.344;14.518;2022-08-21T12:37:52;3.73;;;1.60;;
13693;SDS011;6919;52.344;14.518;2022-08-21T12:40:30;5.33;;;1.57;;
13693;SDS011;6919;52.344;14.518;2022-08-21T12:43:06;4.67;;;2.03;;
13693;SDS011;6919;52.344;14.518;2022-08-21T12:45:47;4.17;;;1.40;;
13693;SDS011;6919;52.344;14.518;2022-08-21T12:48:20;7.13;;;1.63;;
13693;SDS011;6919;52.344;14.518;2022-08-21T12:50:54;5.83;;;1.60;;
13693;SDS011;6919;52.344;14.518;2022-08-21T12:53:28;4.57;;;1.20;;
13693;SDS011;6919;52.344;14.518;2022-08-21T12:56:01;4.87;;;1.63;;
13693;SDS011;6919;52.344;14.518;2022-08-21T12:58:31;3.33;;;1.38;;
13693;SDS011;6919;52.344;14.518;2022-08-21T13:01:01;4.90;;;1.60;;
13693;SDS011;6919;52.344;14.518;2022-08-21T13:03:34;2.92;;;1.38;;
13693;SDS011;6919;52.344;14.518;2022-08-21T13:06:05;2.75;;;1.55;;
13693;SDS011;6919;52.344;14.518;2022-08-21T13:08:35;2.75;;;1.38;;
13693;SDS011;6919;52.344;14.518;2022-08-21T13:11:10;2.78;;;1.38;;
13693;SDS011;6919;52.344;14.518;2022-08-21T13:13:57;4.82;;;1.75;;
13693;SDS011;6919;52.344;14.518;2022-08-21T13:16:31;3.55;;;1.60;;
13693;SDS011;6919;52.344;14.518;2022-08-21T13:19:03;4.00;;;1.83;;
13693;SDS011;6919;52.344;14.518;2022-08-21T13:21:38;3.53;;;1.48;;
13693;SDS011;6919;52.344;14.518;2022-08-21T13:24:13;5.35;;;1.92;;
13693;SDS011;6919;52.344;14.518;2022-08-21T13:27:15;3.92;;;1.55;;
13693;SDS011;6919;52.344;14.518;2022-08-21T13:29:46;3.65;;;1.67;;
13693;SDS011;6919;52.344;14.518;2022-08-21T13:32:22;4.22;;;1.52;;
13693;SDS011;6919;52.344;14.518;2022-08-21T13:34:54;2.50;;;1.20;;
13693;SDS011;6919;52.344;14.518;2022-08-21T13:37:23;3.08;;;1.33;;
13693;SDS011;6919;52.344;14.518;2022-08-21T13:39:55;2.33;;;1.30;;
13693;SDS011;6919;52.344;14.518;2022-08-21T13:42:23;2.70;;;1.25;;
13693;SDS011;6919;52.344;14.518;2022-08-21T13:44:52;3.13;;;1.27;;
13693;SDS011;6919;52.344;14.518;2022-08-21T13:47:22;5.63;;;1.45;;
13693;SDS011;6919;52.344;14.518;2022-08-21T13:49:51;2.22;;;1.20;;
13693;SDS011;6919;52.344;14.518;2022-08-21T13:52:25;3.40;;;1.45;;
13693;SDS011;6919;52.344;14.518;2022-08-21T13:54:56;3.42;;;1.25;;
13693;SDS011;6919;52.344;14.518;2022-08-21T13:57:28;3.75;;;1.40;;
13693;SDS011;6919;52.344;14.518;2022-08-21T14:02:49;4.72;;;1.77;;
13693;SDS011;6919;52.344;14.518;2022-08-21T14:05:20;3.83;;;1.55;;
13693;SDS011;6919;52.344;14.518;2022-08-21T14:07:56;3.75;;;1.77;;
13693;SDS011;6919;52.344;14.518;2022-08-21T14:10:31;6.95;;;1.50;;
13693;SDS011;6919;52.344;14.518;2022-08-21T14:13:14;2.30;;;1.27;;
13693;SDS011;6919;52.344;14.518;2022-08-21T14:16:11;3.92;;;1.55;;
13693;SDS011;6919;52.344;14.518;2022-08-21T14:18:48;2.88;;;1.70;;
13693;SDS011;6919;52.344;14.518;2022-08-21T14:21:31;3.92;;;1.40;;
13693;SDS011;6919;52.344;14.518;2022-08-21T14:24:04;3.25;;;1.63;;
13693;SDS011;6919;52.344;14.518;2022-08-21T14:26:37;3.65;;;1.67;;
13693;SDS011;6919;52.344;14.518;2022-08-21T14:29:19;2.88;;;1.45;;
13693;SDS011;6919;52.344;14.518;2022-08-21T14:31:52;4.55;;;1.55;;
13693;SDS011;6919;52.344;14.518;2022-08-21T14:34:26;4.25;;;1.50;;
13693;SDS011;6919;52.344;14.518;2022-08-21T14:37:01;4.85;;;1.80;;
13693;SDS011;6919;52.344;14.518;2022-08-21T14:39:29;2.38;;;1.35;;
13693;SDS011;6919;52.344;14.518;2022-08-21T14:41:57;5.53;;;1.70;;
13693;SDS011;6919;52.344;14.518;2022-08-21T14:44:27;3.92;;;1.52;;
13693;SDS011;6919;52.344;14.518;2022-08-21T14:46:55;4.20;;;1.80;;
13693;SDS011;6919;52.344;14.518;2022-08-21T14:49:26;4.25;;;1.48;;
13693;SDS011;6919;52.344;14.518;2022-08-21T14:51:55;7.68;;;1.60;;
13693;SDS011;6919;52.344;14.518;2022-08-21T14:54:25;6.73;;;1.93;;
13693;SDS011;6919;52.344;14.518;2022-08-21T14:56:57;4.07;;;1.87;;
13693;SDS011;6919;52.344;14.518;2022-08-21T14:59:30;5.65;;;1.52;;
13693;SDS011;6919;52.344;14.518;2022-08-21T15:01:59;4.68;;;1.63;;
13693;SDS011;6919;52.344;14.518;2022-08-21T15:04:32;3.72;;;1.38;;
13693;SDS011;6919;52.344;14.518;2022-08-21T15:07:01;2.78;;;1.65;;
13693;SDS011;6919;52.344;14.518;2022-08-21T15:09:30;5.22;;;1.70;;
13693;SDS011;6919;52.344;14.518;2022-08-21T15:11:58;3.22;;;1.75;;
13693;SDS011;6919;52.344;14.518;2022-08-21T15:14:29;3.22;;;1.60;;
13693;SDS011;6919;52.344;14.518;2022-08-21T15:17:02;2.67;;;1.23;;
13693;SDS011;6919;52.344;14.518;2022-08-21T15:19:34;3.28;;;1.52;;
13693;SDS011;6919;52.344;14.518;2022-08-21T15:22:04;4.25;;;1.65;;
13693;SDS011;6919;52.344;14.518;2022-08-21T15:24:44;4.07;;;1.80;;